sensor_id;sensor_type;location;lat;lon;timestamp;pressure;altitude;pressure_sealevel;temperature;humidity
45731;BME280;31440;48.584;13.460;2023-03-18T00:01:56;96435.22;;;3.15;100.00
45731;BME280;31440;48.584;13.460;2023-03-18T00:05:02;96438.72;;;3.10;100.00
45731;BME280;31440;48.584;13.460;2023-03-18T00:08:08;96443.00;;;3.11;100.00
45731;BME280;31440;48.584;13.460;2023-03-18T00:14:19;96455.44;;;2.83;100.00
45731;BME280;31440;48.584;13.460;2023-03-18T00:17:24;96444.91;;;2.98;100.00
45731;BME280;31440;48.584;13.460;2023-03-18T00:20:28;96472.34;;;2.96;100.00
45731;BME280;31440;48.584;13.460;2023-03-18T00:23:42;96454.78;;;3.22;100.00
45731;BME280;31440;48.584;13.460;2023-03-18T00:26:47;96455.34;;;3.40;100.00
45731;BME280;31440;48.584;13.460;2023-03-18T00:29:52;96454.16;;;3.08;100.00
45731;BME280;31440;48.584;13.460;2023-03-18T00:32:57;96468.16;;;3.43;100.00
45731;BME280;31440;48.584;13.460;2023-03-18T00:36:03;96463.66;;;3.55;100.00
45731;BME280;31440;48.584;13.460;2023-03-18T00:39:07;96465.53;;;3.47;100.00
45731;BME280;31440;48.584;13.460;2023-03-18T00:42:13;96465.53;;;3.46;100.00
45731;BME280;31440;48.584;13.460;2023-03-18T00:45:18;96475.59;;;3.06;100.00
45731;BME280;31440;48.584;13.460;2023-03-18T00:48:24;96474.19;;;3.40;100.00
45731;BME280;31440;48.584;13.460;2023-03-18T00:51:31;96474.41;;;3.28;100.00
45731;BME280;31440;48.584;13.460;2023-03-18T00:57:42;96479.50;;;3.31;100.00
45731;BME280;31440;48.584;13.460;2023-03-18T01:00:47;96483.66;;;3.38;100.00
45731;BME280;31440;48.584;13.460;2023-03-18T01:03:52;96459.63;;;2.87;100.00
45731;BME280;31440;48.584;13.460;2023-03-18T01:06:58;96488.34;;;2.53;100.00
45731;BME280;31440;48.584;13.460;2023-03-18T01:10:03;96488.06;;;2.73;100.00
45731;BME280;31440;48.584;13.460;2023-03-18T01:13:08;96485.44;;;2.12;100.00
45731;BME280;31440;48.584;13.460;2023-03-18T01:16:14;96435.25;;;1.91;100.00
45731;BME280;31440;48.584;13.460;2023-03-18T01:19:19;96485.84;;;1.75;100.00
45731;BME280;31440;48.584;13.460;2023-03-18T01:22:25;96488.91;;;2.08;100.00
45731;BME280;31440;48.584;13.460;2023-03-18T01:25:30;96502.66;;;2.01;100.00
45731;BME280;31440;48.584;13.460;2023-03-18T01:28:35;96488.50;;;2.40;100.00
45731;BME280;31440;48.584;13.460;2023-03-18T01:31:41;96498.97;;;2.23;100.00
45731;BME280;31440;48.584;13.460;2023-03-18T01:34:51;96488.50;;;2.41;100.00
45731;BME280;31440;48.584;13.460;2023-03-18T01:41:02;96490.00;;;1.86;100.00
45731;BME280;31440;48.584;13.460;2023-03-18T01:44:18;96490.81;;;1.88;100.00
45731;BME280;31440;48.584;13.460;2023-03-18T01:47:25;96500.38;;;1.72;100.00
45731;BME280;31440;48.584;13.460;2023-03-18T01:50:33;96502.25;;;1.55;100.00
45731;BME280;31440;48.584;13.460;2023-03-18T01:53:43;96503.78;;;1.75;100.00
45731;BME280;31440;48.584;13.460;2023-03-18T01:56:51;96489.34;;;1.64;100.00
45731;BME280;31440;48.584;13.460;2023-03-18T01:59:57;96490.13;;;1.73;100.00
45731;BME280;31440;48.584;13.460;2023-03-18T02:06:10;96488.22;;;1.94;100.00
45731;BME280;31440;48.584;13.460;2023-03-18T02:09:16;96495.16;;;1.79;100.00
45731;BME280;31440;48.584;13.460;2023-03-18T02:12:31;96493.53;;;1.75;100.00
45731;BME280;31440;48.584;13.460;2023-03-18T02:15:50;96484.22;;;1.64;100.00
45731;BME280;31440;48.584;13.460;2023-03-18T02:19:10;96494.31;;;1.80;100.00
45731;BME280;31440;48.584;13.460;2023-03-18T02:22:35;96497.84;;;1.70;100.00
45731;BME280;31440;48.584;13.460;2023-03-18T02:28:53;96515.78;;;1.69;100.00
45731;BME280;31440;48.584;13.460;2023-03-18T02:32:03;96519.00;;;1.91;100.00
45731;BME280;31440;48.584;13.460;2023-03-18T02:35:10;96522.31;;;1.99;100.00
45731;BME280;31440;48.584;13.460;2023-03-18T02:38:16;96503.44;;;2.07;100.00
45731;BME280;31440;48.584;13.460;2023-03-18T02:44:28;96535.22;;;1.93;100.00
45731;BME280;31440;48.584;13.460;2023-03-18T02:47:51;96531.19;;;1.64;100.00
45731;BME280;31440;48.584;13.460;2023-03-18T02:50:57;96533.91;;;1.49;100.00
45731;BME280;31440;48.584;13.460;2023-03-18T02:54:05;96540.69;;;1.58;100.00
45731;BME280;31440;48.584;13.460;2023-03-18T02:57:10;96538.25;;;1.39;100.00
45731;BME280;31440;48.584;13.460;2023-03-18T03:03:23;96545.88;;;1.44;100.00
45731;BME280;31440;48.584;13.460;2023-03-18T03:06:28;96544.91;;;1.60;100.00
45731;BME280;31440;48.584;13.460;2023-03-18T03:09:33;96551.56;;;1.79;100.00
45731;BME280;31440;48.584;13.460;2023-03-18T03:12:38;96547.53;;;1.53;100.00
45731;BME280;31440;48.584;13.460;2023-03-18T03:15:47;96551.97;;;1.32;100.00
45731;BME280;31440;48.584;13.460;2023-03-18T03:18:53;96550.06;;;1.57;100.00
45731;BME280;31440;48.584;13.460;2023-03-18T03:21:57;96547.06;;;0.99;100.00
45731;BME280;31440;48.584;13.460;2023-03-18T03:25:04;96554.00;;;0.80;100.00
45731;BME280;31440;48.584;13.460;2023-03-18T03:28:12;96564.31;;;0.65;100.00
45731;BME280;31440;48.584;13.460;2023-03-18T03:34:22;96557.44;;;0.70;100.00
45731;BME280;31440;48.584;13.460;2023-03-18T03:37:28;96561.69;;;0.75;100.00
45731;BME280;31440;48.584;13.460;2023-03-18T03:40:33;96562.69;;;0.39;100.00
45731;BME280;31440;48.584;13.460;2023-03-18T03:43:38;96549.81;;;0.62;100.00
45731;BME280;31440;48.584;13.460;2023-03-18T03:46:43;96561.00;;;0.38;100.00
45731;BME280;31440;48.584;13.460;2023-03-18T03:49:49;96589.97;;;0.43;100.00
45731;BME280;31440;48.584;13.460;2023-03-18T03:52:54;96595.81;;;0.73;100.00
45731;BME280;31440;48.584;13.460;2023-03-18T03:55:58;96596.72;;;0.64;100.00
45731;BME280;31440;48.584;13.460;2023-03-18T03:59:03;96595.09;;;0.50;100.00
45731;BME280;31440;48.584;13.460;2023-03-18T04:02:28;96612.16;;;0.46;100.00
45731;BME280;31440;48.584;13.460;2023-03-18T04:05:33;96610.44;;;0.47;100.00
45731;BME280;31440;48.584;13.460;2023-03-18T04:11:43;96617.31;;;0.20;100.00
45731;BME280;31440;48.584;13.460;2023-03-18T04:14:48;96610.50;;;0.18;100.00
45731;BME280;31440;48.584;13.460;2023-03-18T04:17:55;96608.75;;;0.38;100.00
45731;BME280;31440;48.584;13.460;2023-03-18T04:21:01;96610.44;;;0.37;100.00
45731;BME280;31440;48.584;13.460;2023-03-18T04:24:29;96602.03;;;-0.12;100.00
45731;BME280;31440;48.584;13.460;2023-03-18T04:27:33;96610.53;;;-0.13;100.00
45731;BME280;31440;48.584;13.460;2023-03-18T04:30:47;96627.56;;;0.03;100.00
45731;BME280;31440;48.584;13.460;2023-03-18T04:36:59;96635.25;;;-0.09;100.00
45731;BME280;31440;48.584;13.460;2023-03-18T04:40:06;96622.47;;;-0.18;100.00
45731;BME280;31440;48.584;13.460;2023-03-18T04:43:11;96620.75;;;0.07;100.00
45731;BME280;31440;48.584;13.460;2023-03-18T04:46:16;96625.03;;;-0.06;100.00
45731;BME280;31440;48.584;13.460;2023-03-18T04:49:23;96624.16;;;-0.18;100.00
45731;BME280;31440;48.584;13.460;2023-03-18T04:55:35;96639.50;;;0.11;100.00
45731;BME280;31440;48.584;13.460;2023-03-18T04:58:43;96630.16;;;-0.09;100.00
45731;BME280;31440;48.584;13.460;2023-03-18T05:01:53;96638.66;;;-0.11;100.00
45731;BME280;31440;48.584;13.460;2023-03-18T05:04:58;96635.25;;;0.08;100.00
45731;BME280;31440;48.584;13.460;2023-03-18T05:08:06;96636.09;;;0.12;100.00
45731;BME280;31440;48.584;13.460;2023-03-18T05:11:11;96635.25;;;-0.07;100.00
45731;BME280;31440;48.584;13.460;2023-03-18T05:14:17;96627.59;;;-0.24;100.00
45731;BME280;31440;48.584;13.460;2023-03-18T05:17:23;96634.41;;;-0.14;100.00
45731;BME280;31440;48.584;13.460;2023-03-18T05:20:33;96635.28;;;-0.22;100.00
45731;BME280;31440;48.584;13.460;2023-03-18T05:23:38;96640.34;;;-0.47;100.00
45731;BME280;31440;48.584;13.460;2023-03-18T05:26:43;96652.28;;;-0.12;100.00
45731;BME280;31440;48.584;13.460;2023-03-18T05:29:48;96648.88;;;0.02;100.00
45731;BME280;31440;48.584;13.460;2023-03-18T05:32:58;96654.84;;;-0.00;100.00
45731;BME280;31440;48.584;13.460;2023-03-18T05:36:15;96659.09;;;0.05;100.00
45731;BME280;31440;48.584;13.460;2023-03-18T05:39:31;96650.56;;;0.03;100.00
45731;BME280;31440;48.584;13.460;2023-03-18T05:42:37;96657.38;;;-0.00;100.00
45731;BME280;31440;48.584;13.460;2023-03-18T05:46:06;96665.91;;;0.09;100.00
45731;BME280;31440;48.584;13.460;2023-03-18T05:49:26;96657.41;;;-0.12;100.00
45731;BME280;31440;48.584;13.460;2023-03-18T05:52:54;96598.59;;;0.07;100.00
45731;BME280;31440;48.584;13.460;2023-03-18T05:56:00;96655.66;;;0.19;100.00
45731;BME280;31440;48.584;13.460;2023-03-18T05:59:07;96657.38;;;0.18;100.00
45731;BME280;31440;48.584;13.460;2023-03-18T06:02:24;96654.81;;;0.29;100.00
45731;BME280;31440;48.584;13.460;2023-03-18T06:05:31;96659.03;;;0.50;100.00
45731;BME280;31440;48.584;13.460;2023-03-18T06:08:36;96656.44;;;0.63;100.00
45731;BME280;31440;48.584;13.460;2023-03-18T06:11:41;96638.59;;;0.34;100.00
45731;BME280;31440;48.584;13.460;2023-03-18T06:14:45;96650.50;;;0.48;100.00
45731;BME280;31440;48.584;13.460;2023-03-18T06:17:50;96647.09;;;0.49;100.00
45731;BME280;31440;48.584;13.460;2023-03-18T06:20:56;96642.78;;;0.63;100.00
45731;BME280;31440;48.584;13.460;2023-03-18T06:24:01;96657.16;;;0.97;100.00
45731;BME280;31440;48.584;13.460;2023-03-18T06:27:08;96660.66;;;0.72;100.00
45731;BME280;31440;48.584;13.460;2023-03-18T06:30:16;96661.50;;;0.77;100.00
45731;BME280;31440;48.584;13.460;2023-03-18T06:33:23;96665.63;;;1.08;100.00
45731;BME280;31440;48.584;13.460;2023-03-18T06:36:29;96666.47;;;1.12;100.00
45731;BME280;31440;48.584;13.460;2023-03-18T06:39:35;96672.44;;;1.20;100.00
45731;BME280;31440;48.584;13.460;2023-03-18T06:42:43;96670.66;;;1.33;100.00
45731;BME280;31440;48.584;13.460;2023-03-18T06:46:02;96668.09;;;1.27;100.00
45731;BME280;31440;48.584;13.460;2023-03-18T06:49:08;96669.72;;;1.43;100.00
45731;BME280;31440;48.584;13.460;2023-03-18T06:55:26;96666.91;;;1.81;100.00
45731;BME280;31440;48.584;13.460;2023-03-18T06:58:31;96672.00;;;1.87;100.00
45731;BME280;31440;48.584;13.460;2023-03-18T07:01:40;96677.91;;;1.97;100.00
45731;BME280;31440;48.584;13.460;2023-03-18T07:04:45;96686.44;;;1.97;100.00
45731;BME280;31440;48.584;13.460;2023-03-18T07:07:50;96681.41;;;1.87;100.00
45731;BME280;31440;48.584;13.460;2023-03-18T07:10:55;96683.84;;;2.02;100.00
45731;BME280;31440;48.584;13.460;2023-03-18T07:14:03;96681.03;;;2.31;100.00
45731;BME280;31440;48.584;13.460;2023-03-18T07:17:12;96690.03;;;2.74;100.00
45731;BME280;31440;48.584;13.460;2023-03-18T07:20:18;96676.44;;;2.65;100.00
45731;BME280;31440;48.584;13.460;2023-03-18T07:23:23;96674.16;;;3.15;100.00
45731;BME280;31440;48.584;13.460;2023-03-18T07:26:27;96682.97;;;2.93;100.00
45731;BME280;31440;48.584;13.460;2023-03-18T07:29:32;96682.50;;;3.33;100.00
45731;BME280;31440;48.584;13.460;2023-03-18T07:32:37;96683.84;;;3.59;100.00
45731;BME280;31440;48.584;13.460;2023-03-18T07:35:42;96692.34;;;4.23;100.00
45731;BME280;31440;48.584;13.460;2023-03-18T07:38:47;96682.88;;;4.25;100.00
45731;BME280;31440;48.584;13.460;2023-03-18T07:41:51;96680.09;;;4.37;100.00
45731;BME280;31440;48.584;13.460;2023-03-18T07:45:05;96667.22;;;4.37;100.00
45731;BME280;31440;48.584;13.460;2023-03-18T07:48:11;96683.13;;;4.60;100.00
45731;BME280;31440;48.584;13.460;2023-03-18T07:51:16;96678.94;;;5.00;100.00
45731;BME280;31440;48.584;13.460;2023-03-18T07:54:21;96678.06;;;5.01;100.00
45731;BME280;31440;48.584;13.460;2023-03-18T07:57:25;96675.00;;;5.25;98.13
45731;BME280;31440;48.584;13.460;2023-03-18T08:00:30;96676.50;;;5.74;94.69
45731;BME280;31440;48.584;13.460;2023-03-18T08:03:35;96685.56;;;5.53;94.25
45731;BME280;31440;48.584;13.460;2023-03-18T08:06:40;96681.72;;;5.72;88.96
45731;BME280;31440;48.584;13.460;2023-03-18T08:09:45;96676.13;;;6.61;83.92
45731;BME280;31440;48.584;13.460;2023-03-18T08:15:57;96676.50;;;6.80;79.02
45731;BME280;31440;48.584;13.460;2023-03-18T08:19:02;96671.41;;;7.10;74.45
45731;BME280;31440;48.584;13.460;2023-03-18T08:22:07;96665.91;;;7.50;73.94
45731;BME280;31440;48.584;13.460;2023-03-18T08:25:13;96669.84;;;8.96;93.94
45731;BME280;31440;48.584;13.460;2023-03-18T08:28:18;96644.34;;;9.09;71.44
45731;BME280;31440;48.584;13.460;2023-03-18T08:31:22;96663.03;;;9.17;61.73
45731;BME280;31440;48.584;13.460;2023-03-18T08:34:27;96666.19;;;8.52;62.18
45731;BME280;31440;48.584;13.460;2023-03-18T08:37:31;96668.72;;;9.03;60.42
45731;BME280;31440;48.584;13.460;2023-03-18T08:40:39;96651.22;;;9.10;59.42
45731;BME280;31440;48.584;13.460;2023-03-18T08:43:44;96666.13;;;9.97;59.05
45731;BME280;31440;48.584;13.460;2023-03-18T08:46:49;96666.34;;;9.91;56.66
45731;BME280;31440;48.584;13.460;2023-03-18T08:49:53;96670.03;;;9.15;58.72
45731;BME280;31440;48.584;13.460;2023-03-18T08:52:59;96661.72;;;9.99;57.17
45731;BME280;31440;48.584;13.460;2023-03-18T08:56:04;96668.19;;;10.10;56.07
45731;BME280;31440;48.584;13.460;2023-03-18T08:59:10;96673.59;;;10.04;56.26
45731;BME280;31440;48.584;13.460;2023-03-18T09:02:16;96674.50;;;10.47;55.62
45731;BME280;31440;48.584;13.460;2023-03-18T09:05:21;96657.28;;;10.65;55.05
45731;BME280;31440;48.584;13.460;2023-03-18T09:08:27;96665.13;;;10.43;54.27
45731;BME280;31440;48.584;13.460;2023-03-18T09:11:34;96656.06;;;10.53;57.02
45731;BME280;31440;48.584;13.460;2023-03-18T09:14:40;96669.63;;;11.00;55.46
45731;BME280;31440;48.584;13.460;2023-03-18T09:17:45;96672.09;;;10.21;56.21
45731;BME280;31440;48.584;13.460;2023-03-18T09:21:11;96658.97;;;10.24;54.75
45731;BME280;31440;48.584;13.460;2023-03-18T09:24:17;96670.47;;;10.80;54.21
45731;BME280;31440;48.584;13.460;2023-03-18T09:27:22;96676.34;;;10.43;51.77
45731;BME280;31440;48.584;13.460;2023-03-18T09:30:27;96671.75;;;11.11;50.51
45731;BME280;31440;48.584;13.460;2023-03-18T09:33:33;96664.31;;;11.24;51.61
45731;BME280;31440;48.584;13.460;2023-03-18T09:36:40;96663.19;;;11.67;49.83
45731;BME280;31440;48.584;13.460;2023-03-18T09:39:47;96650.66;;;11.94;50.34
45731;BME280;31440;48.584;13.460;2023-03-18T09:56:38;96648.97;;;13.48;44.19
45731;BME280;31440;48.584;13.460;2023-03-18T10:03:36;96650.78;;;13.63;47.43
45731;BME280;31440;48.584;13.460;2023-03-18T10:06:43;96641.78;;;14.00;45.92
45731;BME280;31440;48.584;13.460;2023-03-18T10:13:24;96636.84;;;14.41;44.94
45731;BME280;31440;48.584;13.460;2023-03-18T10:16:29;96644.78;;;14.40;43.99
45731;BME280;31440;48.584;13.460;2023-03-18T10:19:35;96638.41;;;14.29;43.30
45731;BME280;31440;48.584;13.460;2023-03-18T10:22:59;96640.66;;;14.20;43.18
45731;BME280;31440;48.584;13.460;2023-03-18T10:26:15;96639.41;;;14.57;44.75
45731;BME280;31440;48.584;13.460;2023-03-18T10:33:22;96633.88;;;15.35;44.09
45731;BME280;31440;48.584;13.460;2023-03-18T10:36:48;96632.34;;;15.74;44.69
45731;BME280;31440;48.584;13.460;2023-03-18T10:39:53;96634.63;;;15.66;43.21
45731;BME280;31440;48.584;13.460;2023-03-18T10:42:59;96618.81;;;15.53;43.50
45731;BME280;31440;48.584;13.460;2023-03-18T10:46:10;96623.91;;;16.24;41.20
45731;BME280;31440;48.584;13.460;2023-03-18T10:49:24;96621.88;;;15.74;42.20
45731;BME280;31440;48.584;13.460;2023-03-18T10:56:07;96603.47;;;16.82;41.27
45731;BME280;31440;48.584;13.460;2023-03-18T10:59:20;96592.19;;;15.88;41.72
45731;BME280;31440;48.584;13.460;2023-03-18T11:02:30;96603.81;;;17.53;42.65
45731;BME280;31440;48.584;13.460;2023-03-18T11:05:36;96602.56;;;17.33;38.29
45731;BME280;31440;48.584;13.460;2023-03-18T11:11:49;96602.44;;;17.60;37.25
45731;BME280;31440;48.584;13.460;2023-03-18T11:14:54;96604.84;;;18.36;39.46
45731;BME280;31440;48.584;13.460;2023-03-18T11:18:00;96598.31;;;18.53;36.85
45731;BME280;31440;48.584;13.460;2023-03-18T11:21:05;96594.56;;;17.60;38.29
45731;BME280;31440;48.584;13.460;2023-03-18T11:24:26;96591.78;;;17.74;39.02
45731;BME280;31440;48.584;13.460;2023-03-18T11:27:50;96584.72;;;17.75;38.79
45731;BME280;31440;48.584;13.460;2023-03-18T11:30:56;96579.84;;;18.77;37.79
45731;BME280;31440;48.584;13.460;2023-03-18T11:34:07;96563.97;;;18.31;36.49
45731;BME280;31440;48.584;13.460;2023-03-18T11:37:12;96576.69;;;18.13;37.38
45731;BME280;31440;48.584;13.460;2023-03-18T11:40:25;96573.66;;;18.30;38.00
45731;BME280;31440;48.584;13.460;2023-03-18T11:43:31;96571.81;;;18.78;36.70
45731;BME280;31440;48.584;13.460;2023-03-18T11:50:01;96573.88;;;18.86;37.86
45731;BME280;31440;48.584;13.460;2023-03-18T11:53:27;96571.25;;;18.86;37.95
45731;BME280;31440;48.584;13.460;2023-03-18T11:56:59;96566.66;;;19.45;37.03
45731;BME280;31440;48.584;13.460;2023-03-18T12:23:41;96541.59;;;20.16;35.71
45731;BME280;31440;48.584;13.460;2023-03-18T12:33:52;96541.50;;;19.96;32.40
45731;BME280;31440;48.584;13.460;2023-03-18T12:37:06;96536.72;;;20.33;33.61
45731;BME280;31440;48.584;13.460;2023-03-18T12:50:35;96518.19;;;21.77;31.82
45731;BME280;31440;48.584;13.460;2023-03-18T12:53:48;96519.84;;;21.87;32.13
45731;BME280;31440;48.584;13.460;2023-03-18T12:57:10;96516.38;;;21.37;30.97
45731;BME280;31440;48.584;13.460;2023-03-18T13:00:20;96503.13;;;22.83;30.88
45731;BME280;31440;48.584;13.460;2023-03-18T13:06:38;96517.91;;;20.26;32.61
45731;BME280;31440;48.584;13.460;2023-03-18T13:09:59;96504.56;;;21.51;30.72
45731;BME280;31440;48.584;13.460;2023-03-18T13:16:13;96495.72;;;23.06;31.28
45731;BME280;31440;48.584;13.460;2023-03-18T13:19:18;96494.84;;;22.49;29.45
45731;BME280;31440;48.584;13.460;2023-03-18T13:29:12;96481.69;;;22.19;29.54
45731;BME280;31440;48.584;13.460;2023-03-18T13:39:10;96464.91;;;22.76;29.65
45731;BME280;31440;48.584;13.460;2023-03-18T13:42:24;96468.41;;;22.86;30.68
45731;BME280;31440;48.584;13.460;2023-03-18T13:45:38;96464.97;;;22.18;30.11
45731;BME280;31440;48.584;13.460;2023-03-18T13:48:44;96457.59;;;23.35;29.79
45731;BME280;31440;48.584;13.460;2023-03-18T13:51:54;96447.25;;;22.57;29.98
45731;BME280;31440;48.584;13.460;2023-03-18T13:55:03;96435.81;;;22.57;31.06
45731;BME280;31440;48.584;13.460;2023-03-18T13:58:21;96438.06;;;23.99;31.02
45731;BME280;31440;48.584;13.460;2023-03-18T14:07:45;96438.44;;;24.21;30.65
45731;BME280;31440;48.584;13.460;2023-03-18T14:17:57;96426.38;;;24.45;31.12
45731;BME280;31440;48.584;13.460;2023-03-18T14:21:04;96432.75;;;23.81;31.31
45731;BME280;31440;48.584;13.460;2023-03-18T14:24:12;96433.09;;;23.96;29.29
45731;BME280;31440;48.584;13.460;2023-03-18T14:27:25;96429.28;;;24.85;30.25
45731;BME280;31440;48.584;13.460;2023-03-18T14:33:57;96420.75;;;26.32;27.58
45731;BME280;31440;48.584;13.460;2023-03-18T14:40:15;96418.56;;;24.43;28.96
45731;BME280;31440;48.584;13.460;2023-03-18T14:43:39;96423.91;;;24.51;28.81
45731;BME280;31440;48.584;13.460;2023-03-18T14:46:50;96429.13;;;23.82;30.65
45731;BME280;31440;48.584;13.460;2023-03-18T14:50:00;96420.34;;;24.86;29.04
45731;BME280;31440;48.584;13.460;2023-03-18T14:53:28;96417.72;;;23.54;29.24
45731;BME280;31440;48.584;13.460;2023-03-18T14:56:40;96423.34;;;24.40;29.12
45731;BME280;31440;48.584;13.460;2023-03-18T14:59:45;96420.78;;;24.12;29.74
45731;BME280;31440;48.584;13.460;2023-03-18T15:02:58;96419.25;;;24.45;29.79
45731;BME280;31440;48.584;13.460;2023-03-18T15:06:05;96414.81;;;24.80;29.06
45731;BME280;31440;48.584;13.460;2023-03-18T15:09:28;96422.28;;;24.50;28.94
45731;BME280;31440;48.584;13.460;2023-03-18T15:12:34;96409.97;;;24.49;28.98
45731;BME280;31440;48.584;13.460;2023-03-18T15:15:40;96410.75;;;24.24;29.46
45731;BME280;31440;48.584;13.460;2023-03-18T15:18:50;96409.41;;;23.84;28.66
45731;BME280;31440;48.584;13.460;2023-03-18T15:22:01;96406.38;;;24.15;29.66
45731;BME280;31440;48.584;13.460;2023-03-18T15:25:19;96406.69;;;23.49;29.47
45731;BME280;31440;48.584;13.460;2023-03-18T15:31:38;96407.84;;;23.46;29.69
45731;BME280;31440;48.584;13.460;2023-03-18T15:34:50;96398.59;;;24.21;30.27
45731;BME280;31440;48.584;13.460;2023-03-18T15:38:04;96398.78;;;23.21;30.71
45731;BME280;31440;48.584;13.460;2023-03-18T15:41:10;96402.69;;;22.90;30.45
45731;BME280;31440;48.584;13.460;2023-03-18T15:44:22;96394.09;;;23.96;30.48
45731;BME280;31440;48.584;13.460;2023-03-18T15:47:31;96402.56;;;22.82;29.87
45731;BME280;31440;48.584;13.460;2023-03-18T15:50:36;96408.56;;;22.18;31.47
45731;BME280;31440;48.584;13.460;2023-03-18T15:54:04;96407.88;;;21.97;31.43
45731;BME280;31440;48.584;13.460;2023-03-18T15:57:22;96402.03;;;22.12;32.32
45731;BME280;31440;48.584;13.460;2023-03-18T16:00:28;96401.59;;;22.07;30.96
45731;BME280;31440;48.584;13.460;2023-03-18T16:03:34;96399.66;;;21.11;32.73
45731;BME280;31440;48.584;13.460;2023-03-18T16:06:39;96400.59;;;19.98;34.38
45731;BME280;31440;48.584;13.460;2023-03-18T16:09:44;96397.88;;;19.89;35.18
45731;BME280;31440;48.584;13.460;2023-03-18T16:15:55;96407.25;;;18.95;36.13
45731;BME280;31440;48.584;13.460;2023-03-18T16:19:00;96413.22;;;18.86;35.90
45731;BME280;31440;48.584;13.460;2023-03-18T16:22:04;96412.50;;;18.39;36.93
45731;BME280;31440;48.584;13.460;2023-03-18T16:25:10;96411.69;;;18.26;37.39
45731;BME280;31440;48.584;13.460;2023-03-18T16:28:19;96417.75;;;18.51;36.83
45731;BME280;31440;48.584;13.460;2023-03-18T16:31:25;96416.50;;;17.38;38.09
45731;BME280;31440;48.584;13.460;2023-03-18T16:34:29;96418.03;;;17.17;38.39
45731;BME280;31440;48.584;13.460;2023-03-18T16:37:35;96420.47;;;17.44;38.68
45731;BME280;31440;48.584;13.460;2023-03-18T16:40:40;96430.94;;;16.96;39.87
45731;BME280;31440;48.584;13.460;2023-03-18T16:43:44;96441.13;;;16.88;39.61
45731;BME280;31440;48.584;13.460;2023-03-18T16:46:55;96439.97;;;16.29;40.54
45731;BME280;31440;48.584;13.460;2023-03-18T16:50:01;96436.50;;;16.16;40.90
45731;BME280;31440;48.584;13.460;2023-03-18T16:56:20;96451.50;;;15.47;43.22
45731;BME280;31440;48.584;13.460;2023-03-18T16:59:35;96448.66;;;15.38;43.74
45731;BME280;31440;48.584;13.460;2023-03-18T17:02:40;96456.06;;;15.31;44.30
45731;BME280;31440;48.584;13.460;2023-03-18T17:05:47;96428.44;;;14.98;44.51
45731;BME280;31440;48.584;13.460;2023-03-18T17:08:53;96455.13;;;15.32;44.27
45731;BME280;31440;48.584;13.460;2023-03-18T17:12:02;96438.50;;;15.19;44.36
45731;BME280;31440;48.584;13.460;2023-03-18T17:15:10;96446.22;;;15.34;44.18
45731;BME280;31440;48.584;13.460;2023-03-18T17:18:22;96454.00;;;15.22;44.28
45731;BME280;31440;48.584;13.460;2023-03-18T17:21:28;96463.66;;;15.07;44.92
45731;BME280;31440;48.584;13.460;2023-03-18T17:24:33;96462.38;;;14.86;45.73
45731;BME280;31440;48.584;13.460;2023-03-18T17:27:46;96466.31;;;14.79;45.81
45731;BME280;31440;48.584;13.460;2023-03-18T17:30:51;96472.41;;;14.21;47.63
45731;BME280;31440;48.584;13.460;2023-03-18T17:33:56;96466.75;;;14.28;47.16
45731;BME280;31440;48.584;13.460;2023-03-18T17:37:00;96461.22;;;14.33;47.14
45731;BME280;31440;48.584;13.460;2023-03-18T17:40:05;96471.38;;;14.09;47.78
45731;BME280;31440;48.584;13.460;2023-03-18T17:43:24;96459.88;;;13.82;48.49
45731;BME280;31440;48.584;13.460;2023-03-18T17:46:29;96480.91;;;13.49;49.80
45731;BME280;31440;48.584;13.460;2023-03-18T17:49:36;96474.84;;;13.64;49.49
45731;BME280;31440;48.584;13.460;2023-03-18T17:52:44;96479.31;;;13.62;49.12
45731;BME280;31440;48.584;13.460;2023-03-18T17:55:50;96473.00;;;13.50;49.51
45731;BME280;31440;48.584;13.460;2023-03-18T17:58:54;96471.06;;;13.38;49.80
45731;BME280;31440;48.584;13.460;2023-03-18T18:01:59;96481.69;;;13.04;51.73
45731;BME280;31440;48.584;13.460;2023-03-18T18:05:04;96476.03;;;13.11;51.42
45731;BME280;31440;48.584;13.460;2023-03-18T18:08:14;96475.03;;;12.98;52.81
45731;BME280;31440;48.584;13.460;2023-03-18T18:11:28;96487.78;;;12.87;53.56
45731;BME280;31440;48.584;13.460;2023-03-18T18:14:33;96480.41;;;12.46;56.59
45731;BME280;31440;48.584;13.460;2023-03-18T18:17:38;96481.63;;;12.05;59.30
45731;BME280;31440;48.584;13.460;2023-03-18T18:20:42;96484.06;;;12.25;59.17
45731;BME280;31440;48.584;13.460;2023-03-18T18:23:47;96478.31;;;11.84;62.27
45731;BME280;31440;48.584;13.460;2023-03-18T18:26:52;96471.66;;;11.61;66.47
45731;BME280;31440;48.584;13.460;2023-03-18T18:29:56;96479.75;;;11.19;74.48
45731;BME280;31440;48.584;13.460;2023-03-18T18:33:01;96482.72;;;11.10;75.27
45731;BME280;31440;48.584;13.460;2023-03-18T18:36:06;96478.44;;;10.90;80.64
45731;BME280;31440;48.584;13.460;2023-03-18T18:39:11;96485.50;;;10.88;81.75
45731;BME280;31440;48.584;13.460;2023-03-18T18:42:16;96482.09;;;10.67;86.49
45731;BME280;31440;48.584;13.460;2023-03-18T18:45:21;96485.31;;;10.72;85.80
45731;BME280;31440;48.584;13.460;2023-03-18T18:51:33;96494.84;;;10.14;94.40
45731;BME280;31440;48.584;13.460;2023-03-18T18:54:38;96490.94;;;10.04;94.72
45731;BME280;31440;48.584;13.460;2023-03-18T18:57:42;96493.72;;;10.20;90.95
45731;BME280;31440;48.584;13.460;2023-03-18T19:00:51;96497.88;;;10.24;89.70
45731;BME280;31440;48.584;13.460;2023-03-18T19:03:55;96498.47;;;10.10;91.80
45731;BME280;31440;48.584;13.460;2023-03-18T19:07:04;96463.84;;;9.47;96.90
45731;BME280;31440;48.584;13.460;2023-03-18T19:10:16;96499.44;;;9.65;97.65
45731;BME280;31440;48.584;13.460;2023-03-18T19:13:26;96483.22;;;9.82;93.28